Time;durP1;ratioP1;P1;durP2;ratioP2;P2;SDS_P1;SDS_P2;PMS_P1;PMS_P2;Temp;Humidity;BMP_temperature;BMP_pressure;BME280_temperature;BME280_humidity;BME280_pressure;Samples;Min_cycle;Max_cycle;Signal;HPM_P1;HPM_P2
2022/05/05 00:00:21;;;;;;;8.90;5.40;;;;;;;19.05;30.83;101010.50;5015796;28;20066;-72
2022/05/05 00:02:47;;;;;;;13.68;5.43;;;;;;;19.12;30.95;101013.22;5016345;28;20123;-72
2022/05/05 00:05:14;;;;;;;11.50;5.75;;;;;;;18.68;32.01;101007.28;5014938;28;20498;-72
2022/05/05 00:07:40;;;;;;;9.75;5.70;;;;;;;18.22;32.52;101004.47;5016063;28;20081;-72
2022/05/05 00:14:23;;;;;;;10.55;5.55;;;;;;;18.61;32.05;101006.44;5016248;28;20061;-72
2022/05/05 00:15:38;;;;;;;11.18;5.68;;;;;;;18.32;32.40;100999.50;5015696;28;20132;-73
2022/05/05 00:18:05;;;;;;;11.40;5.93;;;;;;;18.29;32.74;100995.31;5015461;28;20101;-72
2022/05/05 00:20:32;;;;;;;10.85;6.70;;;;;;;17.81;33.53;100989.88;5014082;28;20398;-72
2022/05/05 00:22:58;;;;;;;10.65;6.15;;;;;;;17.99;33.31;100997.47;5016034;28;20073;-71
2022/05/05 00:25:24;;;;;;;15.18;6.35;;;;;;;18.57;32.44;101001.63;5013790;28;20049;-72
2022/05/05 00:27:51;;;;;;;10.75;6.65;;;;;;;18.29;32.52;101002.63;5014147;28;20069;-71
2022/05/05 00:30:17;;;;;;;24.50;6.82;;;;;;;18.93;32.00;101004.84;5014663;28;20153;-72
2022/05/05 00:32:44;;;;;;;15.75;5.90;;;;;;;18.92;31.69;101005.88;5015338;28;20077;-73
2022/05/05 00:35:10;;;;;;;9.90;5.75;;;;;;;18.98;31.46;101001.50;5015634;28;20050;-72
2022/05/05 00:37:37;;;;;;;7.95;5.45;;;;;;;19.35;30.99;101000.03;5016163;28;20069;-73
2022/05/05 00:40:04;;;;;;;8.98;5.45;;;;;;;19.39;31.00;101001.25;5015540;28;20125;-72
2022/05/05 00:42:31;;;;;;;10.48;5.60;;;;;;;19.52;30.78;101005.00;5015886;28;20127;-72
2022/05/05 00:45:00;;;;;;;10.25;5.45;;;;;;;19.52;30.88;100999.53;5017370;28;20045;-72
2022/05/05 00:47:26;;;;;;;7.88;5.72;;;;;;;19.49;30.96;101006.28;5017950;28;20061;-72
2022/05/05 00:49:52;;;;;;;9.50;5.13;;;;;;;19.48;30.93;100997.28;5013021;28;20041;-71
2022/05/05 00:52:20;;;;;;;8.85;5.35;;;;;;;19.52;31.13;101005.00;5017108;28;20390;-71
2022/05/05 00:54:47;;;;;;;9.75;5.35;;;;;;;19.43;31.52;101009.84;5019489;28;20069;-72
2022/05/05 00:57:14;;;;;;;14.00;5.50;;;;;;;18.81;32.50;101024.69;5015502;28;20474;-72
2022/05/05 00:59:42;;;;;;;13.02;5.68;;;;;;;18.70;33.36;101028.84;5015327;28;20073;-72
2022/05/05 01:02:09;;;;;;;11.02;6.28;;;;;;;19.21;33.52;101023.69;5014532;28;20113;-72
2022/05/05 01:04:37;;;;;;;12.15;6.57;;;;;;;18.77;35.11;101029.69;5012559;28;20490;-71
2022/05/05 01:07:38;;;;;;;14.90;6.78;;;;;;;18.96;35.34;101023.44;5006334;28;20509;-72
2022/05/05 01:10:05;;;;;;;9.57;6.95;;;;;;;18.44;36.72;101026.88;5015304;28;20560;-72
2022/05/05 01:12:33;;;;;;;11.73;6.75;;;;;;;18.78;36.43;101025.91;5015500;28;20045;-72
2022/05/05 01:15:00;;;;;;;14.98;7.50;;;;;;;18.81;36.49;101041.81;5015844;28;20128;-72
2022/05/05 01:17:27;;;;;;;14.05;6.57;;;;;;;18.35;37.25;101037.13;5015136;28;20113;-71
2022/05/05 01:19:53;;;;;;;11.93;6.43;;;;;;;18.31;37.36;101035.84;5013621;28;20129;-71
2022/05/05 01:22:20;;;;;;;11.63;6.70;;;;;;;18.28;37.43;101025.41;5014348;28;20041;-71
2022/05/05 01:30:17;;;;;;;14.95;6.43;;;;;;;18.25;37.35;101025.81;5014236;28;20068;-71
2022/05/05 01:32:43;;;;;;;9.38;5.93;;;;;;;18.01;37.96;101035.28;5013407;28;20069;-72
2022/05/05 01:35:10;;;;;;;9.60;6.00;;;;;;;17.84;38.14;101027.47;5015552;28;20470;-72
2022/05/05 01:37:41;;;;;;;17.58;6.25;;;;;;;17.81;38.58;101029.75;5020293;28;20490;-71
2022/05/05 01:40:08;;;;;;;11.95;6.03;;;;;;;18.07;37.69;101024.44;5019186;28;20128;-71
2022/05/05 01:42:34;;;;;;;11.93;5.40;;;;;;;17.67;38.73;101034.25;5019684;28;20122;-71
2022/05/05 01:45:01;;;;;;;9.68;5.28;;;;;;;17.92;37.75;101034.59;5018317;28;20129;-71
2022/05/05 01:47:27;;;;;;;12.60;5.60;;;;;;;18.06;37.49;101039.06;5018295;28;20054;-71
2022/05/05 01:49:57;;;;;;;9.60;4.50;;;;;;;18.01;37.47;101048.84;5018334;28;20133;-71
2022/05/05 01:52:24;;;;;;;9.27;5.20;;;;;;;17.54;38.51;101048.56;5018609;28;20509;-71
2022/05/05 01:54:50;;;;;;;11.95;5.25;;;;;;;17.59;38.73;101045.28;5019206;28;20073;-71
2022/05/05 01:57:16;;;;;;;9.95;5.03;;;;;;;17.66;38.46;101050.75;5018961;28;20489;-73
2022/05/05 01:59:43;;;;;;;11.15;4.85;;;;;;;17.39;39.04;101055.16;5018701;28;20093;-71
2022/05/05 02:02:09;;;;;;;11.63;3.95;;;;;;;17.71;38.13;101050.97;5017516;28;20070;-71
2022/05/05 02:04:36;;;;;;;13.25;5.15;;;;;;;18.27;37.18;101064.44;5017755;28;20053;-71
2022/05/05 02:07:03;;;;;;;13.45;4.80;;;;;;;18.28;37.28;101074.28;5016906;28;20128;-72
2022/05/05 02:09:30;;;;;;;11.40;5.20;;;;;;;18.02;38.13;101070.34;5016502;28;20062;-72
2022/05/05 02:11:57;;;;;;;15.82;5.82;;;;;;;18.25;37.75;101082.84;5016020;28;20137;-71
2022/05/05 02:14:23;;;;;;;12.68;5.50;;;;;;;18.04;38.32;101084.56;5016196;28;20121;-71
2022/05/05 02:16:50;;;;;;;17.02;5.47;;;;;;;18.36;38.18;101082.25;5017773;28;20410;-71
2022/05/05 02:19:17;;;;;;;15.95;5.70;;;;;;;18.38;38.09;101091.03;5015811;28;20061;-72
2022/05/05 02:21:43;;;;;;;10.45;5.03;;;;;;;18.26;38.29;101093.47;5017136;28;20490;-72
2022/05/05 02:24:10;;;;;;;15.68;5.30;;;;;;;18.21;38.42;101089.72;5017135;28;20068;-72
2022/05/05 02:26:36;;;;;;;12.70;6.07;;;;;;;18.00;39.01;101094.16;5017609;28;20117;-71
2022/05/05 02:29:02;;;;;;;11.80;5.45;;;;;;;18.31;38.77;101095.59;5015359;28;20052;-71
2022/05/05 02:31:29;;;;;;;11.88;5.45;;;;;;;18.36;38.79;101103.97;5018830;28;20133;-71
2022/05/05 02:33:55;;;;;;;16.83;5.57;;;;;;;17.93;39.51;101104.16;5015357;28;20049;-71
2022/05/05 02:39:07;;;;;;;12.40;6.32;;;;;;;17.76;39.56;101100.06;5016908;28;20041;-72
2022/05/05 02:41:36;;;;;;;15.43;5.85;;;;;;;17.82;39.65;101097.41;5016519;28;20120;-71
2022/05/05 02:44:03;;;;;;;11.50;6.03;;;;;;;17.55;40.05;101096.38;5015798;28;20133;-71
2022/05/05 02:46:30;;;;;;;7.93;5.25;;;;;;;17.67;39.96;101106.69;5021736;28;20136;-71
2022/05/05 02:48:56;;;;;;;14.80;6.72;;;;;;;17.50;40.40;101109.69;5017738;28;20121;-71
2022/05/05 02:51:22;;;;;;;14.48;6.50;;;;;;;17.67;39.89;101115.66;5019631;28;20072;-71
2022/05/05 02:56:34;;;;;;;14.13;6.45;;;;;;;17.63;40.18;101110.84;5018959;28;20077;-70
2022/05/05 02:59:00;;;;;;;11.82;6.25;;;;;;;17.61;40.04;101116.44;5011846;28;20048;-72
2022/05/05 03:01:27;;;;;;;17.80;7.22;;;;;;;17.80;39.33;101114.91;5016201;28;20081;-72
2022/05/05 03:03:53;;;;;;;11.00;6.70;;;;;;;17.65;40.05;101123.16;5016728;28;20080;-71
2022/05/05 03:06:20;;;;;;;13.82;6.82;;;;;;;17.76;39.97;101119.06;5017929;28;20046;-71
2022/05/05 03:08:46;;;;;;;18.25;7.22;;;;;;;17.89;39.91;101121.88;5015377;28;20050;-72
2022/05/05 03:11:13;;;;;;;12.50;6.60;;;;;;;17.81;40.30;101127.44;5018457;28;20124;-72
2022/05/05 03:13:39;;;;;;;15.40;7.40;;;;;;;17.40;41.23;101124.63;5019895;28;20046;-72
2022/05/05 03:16:06;;;;;;;20.27;7.82;;;;;;;17.75;40.32;101131.81;5021228;28;20065;-73
2022/05/05 03:18:33;;;;;;;14.05;6.88;;;;;;;17.89;40.26;101135.44;5018902;28;20045;-71
2022/05/05 03:20:59;;;;;;;16.13;7.45;;;;;;;17.76;41.00;101138.91;5017505;28;20483;-72
2022/05/05 03:23:26;;;;;;;15.68;7.82;;;;;;;17.67;41.48;101131.09;5016874;28;20139;-73
2022/05/05 03:25:53;;;;;;;14.45;7.55;;;;;;;17.48;41.74;101121.78;5017154;28;20136;-72
2022/05/05 03:28:19;;;;;;;12.60;6.95;;;;;;;17.67;41.67;101131.09;5018839;28;20132;-72
2022/05/05 03:30:46;;;;;;;19.73;7.75;;;;;;;17.58;42.07;101138.56;5019043;28;20074;-73
2022/05/05 03:33:12;;;;;;;13.43;7.57;;;;;;;17.32;42.44;101129.13;5009956;28;20100;-71
2022/05/05 03:35:39;;;;;;;12.05;7.65;;;;;;;17.24;42.11;101125.72;5032209;28;20054;-72
2022/05/05 03:38:05;;;;;;;14.43;7.88;;;;;;;17.40;41.90;101130.03;5019596;28;20052;-72
2022/05/05 03:40:32;;;;;;;11.70;7.20;;;;;;;17.46;41.88;101130.09;5016855;28;20113;-72
2022/05/05 03:42:58;;;;;;;13.88;7.50;;;;;;;17.35;41.84;101144.19;5018027;28;20585;-72
2022/05/05 03:45:25;;;;;;;16.30;8.00;;;;;;;17.39;42.07;101134.63;5019120;28;20110;-71
2022/05/05 03:47:52;;;;;;;15.95;8.38;;;;;;;17.27;42.26;101130.75;5017571;28;20050;-71
2022/05/05 03:50:18;;;;;;;15.57;7.88;;;;;;;16.90;43.12;101132.66;5018300;28;20055;-71
2022/05/05 03:52:45;;;;;;;16.40;8.02;;;;;;;17.06;42.52;101115.28;5018374;28;20029;-71
2022/05/05 03:55:12;;;;;;;14.30;8.25;;;;;;;16.70;44.37;101121.59;5019196;28;20070;-71
2022/05/05 03:57:38;;;;;;;19.15;9.48;;;;;;;16.44;45.11;101113.97;5017418;28;20103;-72
2022/05/05 04:00:05;;;;;;;13.80;9.10;;;;;;;15.73;46.83;101120.88;5016064;28;20072;-72
2022/05/05 04:02:31;;;;;;;18.30;9.55;;;;;;;16.26;45.77;101127.06;5015381;28;20109;-72
2022/05/05 04:04:58;;;;;;;20.83;10.40;;;;;;;15.66;46.84;101123.47;5016482;28;20129;-71
2022/05/05 04:07:24;;;;;;;20.65;9.43;;;;;;;15.96;46.15;101121.66;5017200;28;20070;-72
2022/05/05 04:09:53;;;;;;;19.48;10.05;;;;;;;16.37;45.25;101113.91;5017819;28;20125;-72
2022/05/05 04:12:20;;;;;;;17.58;9.55;;;;;;;16.58;45.11;101109.59;5018220;28;20129;-72
2022/05/05 04:14:47;;;;;;;22.60;10.35;;;;;;;16.68;44.52;101118.25;5018748;28;20454;-72
2022/05/05 04:17:13;;;;;;;17.90;9.73;;;;;;;16.06;46.61;101133.06;5018839;28;20585;-72
2022/05/05 04:19:40;;;;;;;17.38;9.85;;;;;;;16.18;46.59;101122.59;5019386;28;20045;-72
2022/05/05 04:22:06;;;;;;;18.77;10.07;;;;;;;15.88;46.73;101124.44;5022442;28;20191;-72
2022/05/05 04:24:35;;;;;;;14.65;8.88;;;;;;;16.18;45.63;101141.53;5009074;28;20062;-72
2022/05/05 04:27:02;;;;;;;20.25;9.93;;;;;;;16.34;45.42;101140.50;5016728;28;20061;-72
2022/05/05 04:29:28;;;;;;;22.00;10.35;;;;;;;16.64;44.40;101152.16;5016925;28;20482;-71
2022/05/05 04:31:55;;;;;;;16.17;9.82;;;;;;;16.85;44.05;101159.47;5023439;28;20053;-71
2022/05/05 04:34:21;;;;;;;16.15;9.85;;;;;;;16.99;43.77;101158.63;5008808;28;20068;-71
2022/05/05 04:36:49;;;;;;;13.30;9.93;;;;;;;17.12;43.52;101153.31;5030060;28;20073;-71
2022/05/05 04:39:15;;;;;;;18.05;10.70;;;;;;;17.01;43.20;101159.25;5017919;28;20520;-71
2022/05/05 04:41:41;;;;;;;19.75;11.25;;;;;;;17.18;43.24;101164.44;5011586;28;20080;-71
2022/05/05 04:44:08;;;;;;;18.77;10.50;;;;;;;17.11;42.94;101170.63;5019605;28;20049;-72
2022/05/05 04:46:34;;;;;;;17.95;10.13;;;;;;;17.18;42.88;101180.72;5018862;28;20046;-72
2022/05/05 04:49:01;;;;;;;19.20;9.50;;;;;;;17.19;43.20;101187.78;5018506;28;20046;-72
2022/05/05 04:51:27;;;;;;;16.70;9.75;;;;;;;17.38;42.76;101195.34;5017561;28;20078;-71
2022/05/05 04:53:54;;;;;;;17.83;10.68;;;;;;;17.16;43.08;101189.00;5010799;28;20059;-72
2022/05/05 04:56:20;;;;;;;20.05;9.38;;;;;;;17.13;42.95;101190.25;5014702;28;20105;-72
2022/05/05 04:58:47;;;;;;;18.75;10.20;;;;;;;17.39;42.67;101190.75;5014394;28;20137;-71
2022/05/05 05:01:13;;;;;;;18.70;10.45;;;;;;;17.39;42.48;101188.88;5014857;28;20113;-73
2022/05/05 05:03:40;;;;;;;18.63;9.57;;;;;;;17.05;43.51;101187.66;5014547;28;20056;-72
2022/05/05 05:06:09;;;;;;;21.42;9.25;;;;;;;17.08;42.70;101189.97;5014638;28;20073;-72
2022/05/05 05:08:36;;;;;;;14.90;8.43;;;;;;;17.37;42.51;101188.22;5010523;28;20049;-71
2022/05/05 05:11:03;;;;;;;18.65;9.40;;;;;;;17.27;42.86;101184.97;5013486;28;20109;-72
2022/05/05 05:13:29;;;;;;;20.92;12.43;;;;;;;17.27;42.74;101188.53;5014476;28;20453;-70
2022/05/05 05:15:56;;;;;;;17.92;10.32;;;;;;;17.28;42.19;101194.78;5015807;28;20057;-70
2022/05/05 05:18:22;;;;;;;17.63;9.43;;;;;;;17.54;41.74;101208.63;5014031;28;20069;-71
2022/05/05 05:20:50;;;;;;;20.63;9.57;;;;;;;17.39;42.21;101204.31;5015106;28;20057;-71
2022/05/05 05:23:17;;;;;;;15.73;9.18;;;;;;;17.44;42.16;101204.56;5016062;28;20389;-71
2022/05/05 05:25:44;;;;;;;16.85;9.10;;;;;;;17.31;42.29;101207.97;5016510;28;20543;-71
2022/05/05 05:28:12;;;;;;;14.05;8.32;;;;;;;17.59;41.41;101210.78;5017441;28;20125;-70
2022/05/05 05:30:39;;;;;;;17.52;8.85;;;;;;;17.87;40.84;101220.81;5016554;28;20054;-71
2022/05/05 05:33:06;;;;;;;15.63;8.77;;;;;;;17.42;41.50;101226.47;5015178;28;20437;-71
2022/05/05 05:35:33;;;;;;;19.08;8.77;;;;;;;17.65;40.89;101231.69;5014980;28;20065;-69
2022/05/05 05:38:00;;;;;;;23.15;8.70;;;;;;;17.68;41.08;101231.28;5014649;28;20073;-71
2022/05/05 05:40:26;;;;;;;17.83;9.38;;;;;;;17.57;41.13;101235.38;5013742;28;20073;-70
2022/05/05 05:42:53;;;;;;;15.43;9.18;;;;;;;17.41;41.41;101227.50;5015744;28;20129;-71
2022/05/05 05:45:19;;;;;;;17.98;8.90;;;;;;;17.39;41.60;101228.72;5015237;28;20058;-70
2022/05/05 05:47:46;;;;;;;18.00;9.20;;;;;;;17.61;41.60;101233.09;5013720;28;20110;-71
2022/05/05 05:50:12;;;;;;;20.38;8.20;;;;;;;17.55;41.68;101237.44;5014556;28;20102;-71
2022/05/05 05:52:39;;;;;;;15.45;8.52;;;;;;;17.83;40.67;101228.50;5013917;28;20074;-71
2022/05/05 05:55:06;;;;;;;21.15;9.00;;;;;;;17.76;40.82;101235.75;5012861;28;20104;-71
2022/05/05 05:57:32;;;;;;;17.13;8.98;;;;;;;17.54;41.08;101237.63;5011717;28;20056;-71
2022/05/05 05:59:58;;;;;;;19.10;9.65;;;;;;;17.99;40.29;101244.50;5013321;28;20046;-71
2022/05/05 06:05:17;;;;;;;16.40;9.38;;;;;;;18.16;39.84;101250.50;5016632;28;20050;-72
2022/05/05 06:07:44;;;;;;;18.55;8.52;;;;;;;18.29;39.83;101261.47;5013365;28;20141;-70
2022/05/05 06:10:11;;;;;;;17.33;9.30;;;;;;;18.18;39.76;101258.47;5011699;28;20129;-70
2022/05/05 06:12:37;;;;;;;21.67;9.68;;;;;;;18.09;40.32;101257.72;5012981;28;20049;-70
2022/05/05 06:15:04;;;;;;;17.98;8.77;;;;;;;18.28;39.50;101265.22;5013260;28;20415;-71
2022/05/05 06:17:31;;;;;;;15.65;9.02;;;;;;;18.45;39.52;101263.06;5012868;28;20049;-70
2022/05/05 06:19:57;;;;;;;16.05;9.45;;;;;;;18.63;39.19;101264.41;5013753;28;20057;-70
2022/05/05 06:22:24;;;;;;;19.35;9.05;;;;;;;18.94;38.12;101272.97;5010042;28;20120;-70
2022/05/05 06:24:50;;;;;;;22.63;9.45;;;;;;;18.51;38.67;101264.13;5018199;28;20129;-70
2022/05/05 06:27:17;;;;;;;20.75;9.07;;;;;;;18.63;38.18;101269.84;5017581;28;20064;-70
2022/05/05 06:29:43;;;;;;;17.55;8.95;;;;;;;18.42;39.48;101265.34;5019046;28;20074;-71
2022/05/05 06:32:11;;;;;;;21.55;9.82;;;;;;;18.96;37.74;101273.59;5017445;28;20115;-71
2022/05/05 06:34:37;;;;;;;16.70;9.23;;;;;;;18.43;38.77;101275.97;5009497;28;20049;-71
2022/05/05 06:37:05;;;;;;;17.73;8.63;;;;;;;18.75;38.06;101281.81;5016418;28;20050;-70
2022/05/05 06:39:31;;;;;;;21.42;9.30;;;;;;;18.57;38.52;101278.78;5014788;28;20065;-70
2022/05/05 06:41:58;;;;;;;15.45;8.77;;;;;;;19.21;37.17;101286.69;5015315;28;20052;-71
2022/05/05 06:44:25;;;;;;;17.67;8.68;;;;;;;19.48;36.49;101293.00;5014768;28;20046;-70
2022/05/05 06:46:51;;;;;;;24.95;8.55;;;;;;;19.66;36.70;101296.00;5014536;28;20072;-70
2022/05/05 06:49:18;;;;;;;14.70;8.02;;;;;;;19.48;36.90;101293.00;5015721;28;20554;-72
2022/05/05 06:51:44;;;;;;;18.92;9.02;;;;;;;19.75;36.18;101306.72;5016466;28;20443;-72
2022/05/05 06:54:11;;;;;;;13.90;8.30;;;;;;;18.86;37.64;101308.47;5013849;28;20137;-72
2022/05/05 06:56:38;;;;;;;18.15;7.57;;;;;;;19.46;36.45;101303.28;5015732;28;20061;-72
2022/05/05 06:59:04;;;;;;;16.58;8.35;;;;;;;19.81;36.07;101303.19;5017907;28;20045;-76
2022/05/05 07:07:13;;;;;;;19.30;8.20;;;;;;;20.85;33.57;101316.97;5021934;28;20057;-74
2022/05/05 07:12:26;;;;;;;15.63;7.78;;;;;;;21.70;32.38;101311.38;5013268;28;20570;-75
2022/05/05 07:14:53;;;;;;;17.38;7.05;;;;;;;21.85;32.04;101319.28;5019271;28;20052;-75
2022/05/05 07:17:23;;;;;;;17.92;7.97;;;;;;;21.88;32.33;101321.56;5027950;28;20053;-74
2022/05/05 07:19:50;;;;;;;15.00;7.82;;;;;;;21.88;32.33;101318.00;5020045;28;20046;-75
2022/05/05 07:22:16;;;;;;;15.00;7.72;;;;;;;20.88;33.47;101334.78;5017321;28;20096;-75
2022/05/05 07:24:44;;;;;;;18.25;7.43;;;;;;;21.05;33.25;101322.34;5019621;28;20045;-74
2022/05/05 07:27:10;;;;;;;23.33;8.27;;;;;;;20.38;34.61;101326.22;5019401;28;20070;-74
2022/05/05 07:29:41;;;;;;;23.80;8.65;;;;;;;21.01;33.34;101318.41;5022600;28;20141;-75
2022/05/05 07:32:09;;;;;;;19.83;8.73;;;;;;;21.85;31.89;101328.31;5015752;28;20081;-73
2022/05/05 07:34:35;;;;;;;23.30;8.70;;;;;;;21.21;32.69;101333.88;5016600;28;20288;-75
2022/05/05 07:37:03;;;;;;;19.33;8.90;;;;;;;21.38;32.91;101330.41;5016837;28;20077;-74
2022/05/05 07:39:29;;;;;;;16.40;7.80;;;;;;;21.19;33.56;101339.56;5017582;28;20109;-74
2022/05/05 07:41:56;;;;;;;15.02;7.80;;;;;;;22.42;31.13;101338.34;5017897;28;20109;-74
2022/05/05 07:44:23;;;;;;;15.90;6.97;;;;;;;22.90;30.66;101346.75;5018653;28;20069;-73
2022/05/05 07:46:49;;;;;;;16.83;7.82;;;;;;;23.72;29.32;101349.13;5017277;28;20041;-74
2022/05/05 07:49:16;;;;;;;18.35;8.10;;;;;;;23.34;29.48;101341.22;5018525;28;20046;-73
2022/05/05 07:51:43;;;;;;;18.95;7.63;;;;;;;23.90;28.96;101342.75;5017422;28;20129;-74
2022/05/05 07:56:55;;;;;;;22.40;7.88;;;;;;;24.31;28.32;101344.63;5016278;28;20041;-73
2022/05/05 07:59:22;;;;;;;16.55;7.57;;;;;;;24.23;28.30;101344.13;5017165;28;20133;-73
2022/05/05 08:01:49;;;;;;;18.55;7.50;;;;;;;24.65;27.79;101347.66;5016236;28;20125;-73
2022/05/05 08:04:22;;;;;;;16.90;8.52;;;;;;;25.10;26.93;101345.13;5019347;28;20113;-72
2022/05/05 08:06:52;;;;;;;12.73;7.63;;;;;;;24.44;27.35;101346.34;5018265;28;20041;-71
2022/05/05 08:09:19;;;;;;;15.20;7.32;;;;;;;24.45;27.37;101348.00;5017873;28;20053;-72
2022/05/05 08:11:45;;;;;;;13.15;6.88;;;;;;;24.60;27.35;101342.03;5016021;28;20478;-74
2022/05/05 08:14:12;;;;;;;16.45;6.72;;;;;;;24.79;27.22;101345.50;5011894;28;20073;-75
2022/05/05 08:16:39;;;;;;;14.65;6.55;;;;;;;24.78;26.83;101349.31;5016659;28;20049;-75
2022/05/05 08:19:06;;;;;;;13.52;6.60;;;;;;;25.43;25.92;101342.75;5007908;28;20099;-73
2022/05/05 08:21:33;;;;;;;13.18;5.95;;;;;;;25.57;25.94;101349.59;5018663;28;20402;-75
2022/05/05 08:29:36;;;;;;;17.40;6.80;;;;;;;26.09;24.98;101342.06;5014355;28;20053;-73
2022/05/05 08:32:04;;;;;;;16.08;6.70;;;;;;;25.23;26.09;101351.41;5014954;28;20070;-74
2022/05/05 08:34:30;;;;;;;14.38;6.30;;;;;;;26.44;24.81;101346.50;5011679;28;20073;-73
2022/05/05 08:36:57;;;;;;;11.38;6.10;;;;;;;26.13;24.78;101347.91;5013592;28;20072;-73
2022/05/05 08:39:23;;;;;;;11.68;5.70;;;;;;;24.83;26.27;101357.66;5010461;28;20054;-74
2022/05/05 08:41:52;;;;;;;15.48;6.10;;;;;;;26.26;24.30;101358.59;5017355;28;20045;-73
2022/05/05 08:44:18;;;;;;;13.00;6.85;;;;;;;25.66;25.00;101359.16;5016643;28;20080;-73
2022/05/05 08:46:47;;;;;;;18.65;6.18;;;;;;;26.57;24.17;101353.59;5008143;28;20075;-74
2022/05/05 08:49:16;;;;;;;12.88;5.75;;;;;;;25.89;24.72;101355.44;5026704;28;20453;-72
2022/05/05 08:51:52;;;;;;;10.50;5.13;;;;;;;25.32;25.48;101369.16;5015584;28;20476;-73
2022/05/05 08:54:21;;;;;;;13.15;5.47;;;;;;;25.82;24.79;101355.63;5015832;28;20108;-74
2022/05/05 08:56:49;;;;;;;13.60;5.72;;;;;;;26.08;24.48;101356.91;5015058;28;20142;-72
2022/05/05 08:59:16;;;;;;;10.13;5.60;;;;;;;25.83;24.64;101364.72;5014697;28;20125;-72
2022/05/05 09:01:44;;;;;;;16.05;5.88;;;;;;;25.24;25.65;101372.31;5011621;28;20117;-71
2022/05/05 09:04:11;;;;;;;8.38;4.97;;;;;;;26.40;24.21;101356.34;5010398;28;20045;-73
2022/05/05 09:06:49;;;;;;;13.88;5.22;;;;;;;26.45;23.80;101350.09;5013385;28;20347;-70
2022/05/05 09:09:28;;;;;;;8.85;5.03;;;;;;;26.31;24.00;101364.19;5014680;28;20037;-71
2022/05/05 09:12:05;;;;;;;9.30;4.88;;;;;;;26.30;23.89;101353.44;5013448;28;20406;-71
2022/05/05 09:14:44;;;;;;;10.25;5.03;;;;;;;26.40;23.89;101361.84;5004592;28;20148;-71
2022/05/05 09:17:19;;;;;;;11.90;4.40;;;;;;;26.89;23.01;101367.56;5012499;28;20054;-71
2022/05/05 09:19:49;;;;;;;16.88;4.93;;;;;;;26.49;23.74;101367.78;5013560;28;20045;-71
2022/05/05 09:22:18;;;;;;;9.15;4.32;;;;;;;25.53;24.08;101382.22;5012953;28;20113;-72
2022/05/05 09:24:51;;;;;;;8.43;4.22;;;;;;;26.53;22.90;101375.28;5012106;28;20453;-71
2022/05/05 09:27:24;;;;;;;12.18;4.60;;;;;;;26.30;23.28;101368.00;5010055;28;20076;-72
2022/05/05 09:30:12;;;;;;;9.88;5.10;;;;;;;27.68;21.40;101371.84;5016230;28;20049;-71
2022/05/05 09:32:40;;;;;;;15.57;5.22;;;;;;;27.39;21.89;101380.38;5014275;28;20459;-71
2022/05/05 09:35:15;;;;;;;11.38;4.40;;;;;;;26.50;22.18;101377.69;5012535;28;20046;-72
2022/05/05 09:37:47;;;;;;;12.00;4.93;;;;;;;26.49;22.94;101376.84;5010058;28;20045;-71
2022/05/05 09:40:20;;;;;;;12.20;4.60;;;;;;;27.54;21.25;101376.13;5013679;28;20053;-71
2022/05/05 09:42:51;;;;;;;12.20;4.80;;;;;;;26.31;22.48;101377.13;5011006;28;20072;-72
2022/05/05 09:45:31;;;;;;;12.05;4.80;;;;;;;27.41;20.79;101383.69;5012017;28;20050;-71
2022/05/05 09:48:01;;;;;;;14.97;3.97;;;;;;;27.34;20.89;101380.28;5013263;28;20100;-71
2022/05/05 09:50:30;;;;;;;14.00;4.70;;;;;;;26.12;22.29;101394.91;5014564;28;20289;-71
2022/05/05 09:58:35;;;;;;;9.98;3.75;;;;;;;27.69;19.94;101388.13;5025774;28;20053;-71
2022/05/05 10:01:13;;;;;;;14.77;5.20;;;;;;;28.47;19.06;101395.28;5036044;28;20041;-71
2022/05/05 10:04:03;;;;;;;12.02;4.45;;;;;;;27.76;19.40;101398.13;5045889;28;20053;-71
2022/05/05 10:06:35;;;;;;;11.18;4.65;;;;;;;28.08;19.50;101399.06;5052711;28;20040;-72
2022/05/05 10:09:07;;;;;;;11.93;4.15;;;;;;;28.79;18.80;101401.56;5053977;28;20104;-72
2022/05/05 10:11:34;;;;;;;10.73;4.00;;;;;;;26.91;20.42;101395.69;5054827;28;20087;-72
2022/05/05 10:14:05;;;;;;;10.63;4.47;;;;;;;29.14;18.60;101402.88;5047541;28;20538;-72
2022/05/05 10:16:33;;;;;;;8.05;3.83;;;;;;;28.26;19.47;101395.06;5045255;28;20041;-72
2022/05/05 10:19:01;;;;;;;15.38;5.63;;;;;;;29.04;18.53;101398.13;5053440;28;20132;-71
2022/05/05 10:21:36;;;;;;;15.85;5.85;;;;;;;27.77;20.10;101392.38;5057047;28;20433;-71
2022/05/05 10:24:19;;;;;;;11.82;4.43;;;;;;;27.52;20.50;101392.91;5054539;28;20041;-72
2022/05/05 10:26:54;;;;;;;16.38;4.78;;;;;;;25.49;22.83;101397.53;5054397;28;20456;-72
2022/05/05 10:29:32;;;;;;;9.60;4.43;;;;;;;24.41;24.07;101397.00;5056727;28;20051;-71
2022/05/05 10:32:25;;;;;;;12.50;5.28;;;;;;;24.54;23.70;101400.59;5077157;28;20045;-71
2022/05/05 10:34:53;;;;;;;9.57;4.40;;;;;;;25.03;23.40;101404.81;5055711;28;20075;-71
2022/05/05 10:37:30;;;;;;;14.02;5.28;;;;;;;25.35;23.09;101393.41;5079804;28;20071;-72
2022/05/05 10:39:57;;;;;;;11.05;5.07;;;;;;;25.76;22.14;101399.75;5078399;28;20123;-72
2022/05/05 10:42:27;;;;;;;18.38;5.20;;;;;;;24.00;24.28;101400.59;5077162;28;20044;-73
2022/05/05 10:45:19;;;;;;;12.73;5.53;;;;;;;25.38;22.76;101396.50;5076353;28;20127;-72
2022/05/05 10:47:52;;;;;;;11.10;4.95;;;;;;;25.93;22.02;101397.88;5075558;28;20132;-72
2022/05/05 10:50:29;;;;;;;18.70;6.32;;;;;;;25.57;22.43;101404.56;5075771;28;20040;-72
2022/05/05 10:52:55;;;;;;;12.00;5.50;;;;;;;26.45;21.49;101397.72;5075020;28;20500;-72
2022/05/05 10:55:31;;;;;;;15.30;5.45;;;;;;;26.12;21.14;101403.97;5075488;28;20108;-71
2022/05/05 10:58:56;;;;;;;15.68;5.20;;;;;;;25.76;21.88;101403.34;5074759;28;20374;-72
2022/05/05 11:01:23;;;;;;;15.57;5.28;;;;;;;25.55;22.08;101407.56;5071922;28;20041;-74
2022/05/05 11:04:15;;;;;;;11.82;5.03;;;;;;;25.38;22.43;101406.66;5068530;28;20070;-74
2022/05/05 11:06:42;;;;;;;10.88;5.22;;;;;;;26.12;21.62;101401.22;5078032;28;21778;-73
2022/05/05 11:09:27;;;;;;;10.55;4.70;;;;;;;26.10;21.54;101403.38;5076973;28;20374;-73
2022/05/05 11:12:23;;;;;;;8.63;4.63;;;;;;;25.75;22.02;101395.31;5076883;28;20070;-73
2022/05/05 11:23:46;;;;;;;10.82;5.05;;;;;;;25.77;22.11;101398.66;5077953;28;20049;-73
2022/05/05 11:26:15;;;;;;;14.77;4.95;;;;;;;24.88;22.99;101401.69;5068693;28;20044;-72
2022/05/05 11:28:42;;;;;;;12.45;5.03;;;;;;;25.92;21.81;101400.84;5061455;28;20128;-72
2022/05/05 11:31:31;;;;;;;20.80;5.05;;;;;;;25.00;23.10;101412.69;5078447;28;20128;-73
2022/05/05 11:34:00;;;;;;;15.63;5.30;;;;;;;25.48;22.17;101408.75;5058525;28;20106;-73
2022/05/05 11:36:29;;;;;;;12.75;5.22;;;;;;;24.24;23.37;101411.63;5076632;28;20044;-72
2022/05/05 11:38:56;;;;;;;8.77;5.20;;;;;;;24.07;23.75;101417.75;5067960;28;20079;-72
2022/05/05 11:41:23;;;;;;;15.40;4.80;;;;;;;24.75;22.97;101412.88;5076424;28;20040;-73
2022/05/05 11:46:36;;;;;;;16.05;5.90;;;;;;;23.32;25.51;101411.78;5076044;28;20112;-72
2022/05/05 11:49:03;;;;;;;13.10;4.65;;;;;;;23.54;25.22;101418.47;5075986;28;20484;-74
2022/05/05 11:51:32;;;;;;;20.10;5.07;;;;;;;23.84;24.82;101428.63;5077455;28;20083;-72
2022/05/05 11:54:10;;;;;;;12.80;4.90;;;;;;;23.54;25.21;101423.09;5077803;28;20052;-73
2022/05/05 11:56:44;;;;;;;13.68;4.82;;;;;;;23.97;24.83;101425.72;5077381;28;20455;-72
2022/05/05 12:02:06;;;;;;;12.13;4.55;;;;;;;23.27;25.33;101423.44;5067358;28;20048;-73
2022/05/05 12:04:37;;;;;;;15.82;4.97;;;;;;;23.14;24.94;101421.66;5080039;28;20408;-73
2022/05/05 12:07:06;;;;;;;10.05;5.47;;;;;;;23.22;24.54;101415.88;5081116;28;20047;-73
2022/05/05 12:09:33;;;;;;;12.30;4.85;;;;;;;24.36;23.61;101406.97;5080803;28;20052;-73
2022/05/05 12:12:18;;;;;;;14.18;4.70;;;;;;;24.23;24.29;101398.97;5074209;28;20048;-73
2022/05/05 12:14:49;;;;;;;12.23;4.88;;;;;;;23.88;23.46;101407.91;5080796;28;20049;-73
2022/05/05 12:17:18;;;;;;;11.93;5.35;;;;;;;23.90;23.55;101408.53;5081307;28;20051;-74